Time,TemperatureF,DewpointF,PressureIn,WindDirection,WindDirectionDegrees,WindSpeedMPH,WindSpeedGustMPH,Humidity,HourlyPrecipIn,Conditions,Clouds,dailyrainin,SoftwareType,DateUTC
2013-02-02 00:01:00,39.0,39.0,30.36,WNW,301,1.0,1.0,100,0.00,,,0.07,,2013-02-02 08:01:00,
2013-02-02 00:11:00,39.0,39.0,30.36,WNW,301,1.0,1.0,100,0.00,,,0.07,,2013-02-02 08:11:00,
2013-02-02 00:21:00,39.0,39.0,30.36,WNW,301,2.0,3.0,100,0.00,,,0.04,,2013-02-02 08:21:00,
2013-02-02 00:31:00,39.0,39.0,30.35,WNW,301,0.0,1.0,100,0.00,,,0.18,,2013-02-02 08:31:00,
2013-02-02 00:41:00,39.0,39.0,30.35,WNW,301,0.0,1.0,100,0.00,,,0.18,,2013-02-02 08:41:00,
2013-02-02 00:52:00,40.0,40.0,30.36,WNW,300,1.0,1.0,100,0.00,,,0.17,,2013-02-02 08:52:00,
2013-02-02 01:01:00,40.0,40.0,30.36,WNW,300,1.0,2.0,100,0.00,,,0.17,,2013-02-02 09:01:00,
2013-02-02 01:11:00,40.0,40.0,30.36,WNW,300,1.0,2.0,100,0.00,,,0.17,,2013-02-02 09:11:00,
2013-02-02 01:22:00,41.0,41.0,30.35,WNW,300,1.0,2.0,100,0.00,,,0.17,,2013-02-02 09:22:00,
2013-02-02 01:31:00,41.0,41.0,30.35,WNW,301,1.0,2.0,100,0.00,,,0.17,,2013-02-02 09:31:00,
2013-02-02 01:42:00,41.0,41.0,30.35,WNW,301,1.0,2.0,100,0.00,,,0.17,,2013-02-02 09:42:00,
2013-02-02 01:52:00,39.0,39.0,30.36,WNW,301,1.0,1.0,100,0.00,,,0.17,,2013-02-02 09:52:00,
2013-02-02 02:01:00,39.0,39.0,30.36,WNW,300,1.0,2.0,100,0.00,,,0.16,,2013-02-02 10:01:00,
2013-02-02 02:11:00,39.0,39.0,30.36,WNW,300,1.0,2.0,100,0.00,,,0.16,,2013-02-02 10:11:00,
2013-02-02 02:21:00,40.0,40.0,30.36,NW,305,0.0,1.0,100,0.00,,,0.16,,2013-02-02 10:21:00,
2013-02-02 02:31:00,39.0,39.0,30.37,WNW,300,0.0,0.0,100,0.00,,,0.16,,2013-02-02 10:31:00,
2013-02-02 02:41:00,39.0,39.0,30.37,WNW,300,0.0,0.0,100,0.00,,,0.16,,2013-02-02 10:41:00,
2013-02-02 02:52:00,39.0,39.0,30.36,NW,305,0.0,0.0,100,0.00,,,0.16,,2013-02-02 10:52:00,
2013-02-02 03:01:00,38.0,38.0,30.35,WNW,300,2.0,3.0,100,0.00,,,0.16,,2013-02-02 11:01:00,
2013-02-02 03:11:00,38.0,38.0,30.35,WNW,300,2.0,3.0,100,0.00,,,0.16,,2013-02-02 11:11:00,
2013-02-02 03:21:00,38.0,38.0,30.35,WNW,301,1.0,2.0,100,0.00,,,0.16,,2013-02-02 11:21:00,
2013-02-02 03:31:00,38.0,38.0,30.35,WNW,301,2.0,2.0,100,0.00,,,0.16,,2013-02-02 11:31:00,
2013-02-02 03:41:00,38.0,38.0,30.35,WNW,301,2.0,2.0,100,0.00,,,0.16,,2013-02-02 11:41:00,
2013-02-02 03:52:00,38.0,38.0,30.34,WNW,301,1.0,2.0,100,0.00,,,0.15,,2013-02-02 11:52:00,
2013-02-02 04:01:00,39.0,39.0,30.33,WNW,300,2.0,2.0,100,0.00,,,0.15,,2013-02-02 12:01:00,
2013-02-02 04:11:00,39.0,39.0,30.33,WNW,300,2.0,2.0,100,0.00,,,0.15,,2013-02-02 12:11:00,
2013-02-02 04:22:00,38.0,38.0,30.34,WNW,301,3.0,3.0,100,0.00,,,0.15,,2013-02-02 12:22:00,
2013-02-02 04:32:00,38.0,38.0,30.33,WNW,301,1.0,2.0,100,0.00,,,0.15,,2013-02-02 12:32:00,
2013-02-02 04:42:00,38.0,38.0,30.33,WNW,301,1.0,2.0,100,0.00,,,0.15,,2013-02-02 12:42:00,
2013-02-02 04:52:00,38.0,38.0,30.33,WNW,301,2.0,2.0,100,0.00,,,0.15,,2013-02-02 12:52:00,
2013-02-02 05:02:00,38.0,38.0,30.33,NW,305,0.0,0.0,100,0.00,,,0.15,,2013-02-02 13:02:00,
2013-02-02 05:11:00,38.0,38.0,30.33,NW,305,0.0,0.0,100,0.00,,,0.15,,2013-02-02 13:11:00,
2013-02-02 05:21:00,38.0,38.0,30.32,WNW,301,1.0,1.0,100,0.00,,,0.15,,2013-02-02 13:21:00,
2013-02-02 05:32:00,39.0,39.0,30.33,WNW,301,0.0,1.0,100,0.00,,,0.15,,2013-02-02 13:32:00,
2013-02-02 05:42:00,39.0,39.0,30.33,WNW,301,0.0,1.0,100,0.00,,,0.15,,2013-02-02 13:42:00,
2013-02-02 05:52:00,38.0,38.0,30.32,WNW,300,0.0,1.0,100,0.00,,,0.15,,2013-02-02 13:52:00,
2013-02-02 06:01:00,37.0,37.0,30.32,WNW,301,0.0,0.0,100,0.00,,,0.15,,2013-02-02 14:01:00,
2013-02-02 06:11:00,37.0,37.0,30.32,WNW,301,0.0,0.0,100,0.00,,,0.15,,2013-02-02 14:11:00,
2013-02-02 06:22:00,36.0,36.0,30.32,WNW,300,2.0,2.0,100,0.00,,,0.15,,2013-02-02 14:22:00,
2013-02-02 06:31:00,38.0,38.0,30.31,WNW,300,0.0,1.0,100,0.00,,,0.15,,2013-02-02 14:31:00,
2013-02-02 06:42:00,38.0,38.0,30.31,WNW,300,0.0,1.0,100,0.00,,,0.15,,2013-02-02 14:42:00,
2013-02-02 06:52:00,38.0,38.0,30.31,WNW,301,0.0,1.0,100,0.00,,,0.15,,2013-02-02 14:52:00,
2013-02-02 07:02:00,39.0,39.0,30.32,WNW,301,1.0,1.0,100,0.00,,,0.15,,2013-02-02 15:02:00,
2013-02-02 07:11:00,39.0,39.0,30.32,WNW,301,1.0,1.0,100,0.00,,,0.15,,2013-02-02 15:11:00,
2013-02-02 07:21:00,41.0,41.0,30.30,WNW,300,1.0,1.0,100,0.00,,,0.15,,2013-02-02 15:21:00,
2013-02-02 07:32:00,41.0,41.0,30.31,WNW,300,2.0,2.0,100,0.00,,,0.15,,2013-02-02 15:32:00,
2013-02-02 07:41:00,41.0,41.0,30.31,WNW,300,2.0,2.0,100,0.00,,,0.15,,2013-02-02 15:41:00,
2013-02-02 07:52:00,42.0,42.0,30.30,WNW,300,0.0,1.0,100,0.00,,,0.15,,2013-02-02 15:52:00,
2013-02-02 08:01:00,41.0,41.0,30.30,WNW,300,2.0,2.0,99,0.00,,,0.15,,2013-02-02 16:01:00,
2013-02-02 08:11:00,41.0,41.0,30.30,WNW,300,2.0,2.0,99,0.00,,,0.15,,2013-02-02 16:11:00,
2013-02-02 08:21:00,41.0,41.0,30.30,WNW,300,2.0,2.0,99,0.00,,,0.15,,2013-02-02 16:21:00,
2013-02-02 08:31:00,42.0,40.0,30.31,WNW,301,1.0,2.0,94,0.00,,,0.15,,2013-02-02 16:31:00,
2013-02-02 08:42:00,42.0,40.0,30.31,WNW,301,1.0,2.0,94,0.00,,,0.15,,2013-02-02 16:42:00,
2013-02-02 08:52:00,44.0,40.0,30.31,WNW,301,0.0,1.0,87,0.00,,,0.15,,2013-02-02 16:52:00,
2013-02-02 09:02:00,44.0,39.0,30.31,WNW,301,0.0,0.0,84,0.00,,,0.15,,2013-02-02 17:02:00,
2013-02-02 09:21:00,43.0,40.0,30.32,NW,304,1.0,2.0,89,0.00,,,0.15,,2013-02-02 17:21:00,
2013-02-02 09:31:00,40.0,39.0,30.31,WNW,301,0.0,1.0,95,0.00,,,0.15,,2013-02-02 17:31:00,
2013-02-02 09:41:00,40.0,39.0,30.31,WNW,301,0.0,1.0,95,0.00,,,0.15,,2013-02-02 17:41:00,
2013-02-02 09:52:00,38.0,37.0,30.31,WNW,302,1.0,1.0,97,0.00,,,0.15,,2013-02-02 17:52:00,
2013-02-02 10:01:00,38.0,38.0,30.31,WNW,303,0.0,0.0,100,0.00,,,0.15,,2013-02-02 18:01:00,
2013-02-02 10:11:00,38.0,38.0,30.31,WNW,303,0.0,0.0,100,0.00,,,0.15,,2013-02-02 18:11:00,
2013-02-02 10:21:00,38.0,38.0,30.31,WNW,303,0.0,0.0,100,0.00,,,0.15,,2013-02-02 18:21:00,
2013-02-02 10:31:00,37.0,37.0,30.32,NW,305,1.0,2.0,100,0.00,,,0.15,,2013-02-02 18:31:00,
2013-02-02 10:41:00,37.0,37.0,30.32,NW,305,1.0,2.0,100,0.00,,,0.15,,2013-02-02 18:41:00,
2013-02-02 10:52:00,37.0,37.0,30.32,NW,304,0.0,1.0,100,0.00,,,0.15,,2013-02-02 18:52:00,
2013-02-02 11:01:00,37.0,37.0,30.32,NW,304,0.0,1.0,100,0.00,,,0.15,,2013-02-02 19:01:00,
2013-02-02 11:11:00,37.0,37.0,30.32,NW,304,0.0,1.0,100,0.00,,,0.15,,2013-02-02 19:11:00,
2013-02-02 11:21:00,38.0,38.0,30.31,NW,304,0.0,0.0,100,0.00,,,0.15,,2013-02-02 19:21:00,
2013-02-02 11:31:00,38.0,38.0,30.31,NW,304,0.0,0.0,100,0.00,,,0.15,,2013-02-02 19:31:00,
2013-02-02 11:41:00,38.0,38.0,30.31,NW,304,0.0,0.0,100,0.00,,,0.15,,2013-02-02 19:41:00,
2013-02-02 11:52:00,39.0,39.0,30.30,WNW,301,2.0,2.0,100,0.00,,,0.15,,2013-02-02 19:52:00,
2013-02-02 12:01:00,41.0,41.0,30.30,WNW,299,1.0,2.0,100,0.00,,,0.15,,2013-02-02 20:01:00,
2013-02-02 12:11:00,41.0,41.0,30.30,WNW,299,1.0,2.0,100,0.00,,,0.15,,2013-02-02 20:11:00,
2013-02-02 12:21:00,39.0,39.0,30.30,NW,305,1.0,1.0,100,0.00,,,0.15,,2013-02-02 20:21:00,
2013-02-02 12:32:00,40.0,40.0,30.30,NW,305,1.0,2.0,100,0.00,,,0.15,,2013-02-02 20:32:00,
2013-02-02 12:41:00,40.0,40.0,30.30,NW,305,1.0,2.0,100,0.00,,,0.15,,2013-02-02 20:41:00,
2013-02-02 12:52:00,39.0,39.0,30.29,NW,305,1.0,2.0,100,0.00,,,0.15,,2013-02-02 20:52:00,
2013-02-02 13:01:00,39.0,39.0,30.29,NW,305,1.0,2.0,100,0.00,,,0.15,,2013-02-02 21:01:00,
2013-02-02 13:11:00,39.0,39.0,30.29,NW,305,1.0,2.0,100,0.00,,,0.15,,2013-02-02 21:11:00,
2013-02-02 13:21:00,40.0,40.0,30.29,NW,305,1.0,2.0,100,0.00,,,0.15,,2013-02-02 21:21:00,
2013-02-02 13:32:00,40.0,40.0,30.28,WNW,301,0.0,1.0,100,0.00,,,0.15,,2013-02-02 21:32:00,
2013-02-02 13:42:00,40.0,40.0,30.28,WNW,301,0.0,1.0,100,0.00,,,0.15,,2013-02-02 21:42:00,
2013-02-02 13:52:00,40.0,40.0,30.28,NW,305,0.0,1.0,100,0.00,,,-99.99,,2013-02-02 21:52:00,
2013-02-02 14:01:00,39.0,39.0,30.29,NW,305,1.0,2.0,100,0.00,,,-99.99,,2013-02-02 22:01:00,
2013-02-02 14:11:00,39.0,39.0,30.29,NW,305,1.0,2.0,100,0.00,,,-99.99,,2013-02-02 22:11:00,
2013-02-02 14:21:00,39.0,39.0,30.29,NW,304,2.0,2.0,100,0.00,,,-99.99,,2013-02-02 22:21:00,
2013-02-02 14:32:00,39.0,39.0,30.28,NW,304,2.0,2.0,100,0.00,,,-99.99,,2013-02-02 22:32:00,
2013-02-02 14:41:00,39.0,39.0,30.28,NW,304,2.0,2.0,100,0.00,,,-99.99,,2013-02-02 22:41:00,
2013-02-02 14:52:00,39.0,39.0,30.28,NW,304,2.0,2.0,100,0.00,,,-99.99,,2013-02-02 22:52:00,
2013-02-02 15:01:00,38.0,38.0,30.28,WNW,303,2.0,3.0,100,0.00,,,-99.99,,2013-02-02 23:01:00,
2013-02-02 15:11:00,38.0,38.0,30.28,WNW,303,2.0,3.0,100,0.00,,,-99.99,,2013-02-02 23:11:00,
2013-02-02 15:21:00,38.0,38.0,30.28,WNW,303,2.0,3.0,100,0.00,,,-99.99,,2013-02-02 23:21:00,
2013-02-02 15:32:00,38.0,38.0,30.28,WNW,303,2.0,3.0,100,0.00,,,-99.99,,2013-02-02 23:32:00,
2013-02-02 15:41:00,38.0,38.0,30.28,WNW,303,2.0,3.0,100,0.00,,,-99.99,,2013-02-02 23:41:00,
2013-02-02 15:52:00,38.0,38.0,30.28,WNW,303,2.0,3.0,100,0.00,,,-99.99,,2013-02-02 23:52:00,
2013-02-02 16:01:00,38.0,38.0,30.27,NW,304,2.0,3.0,100,0.00,,,-99.99,,2013-02-03 00:01:00,
2013-02-02 16:11:00,38.0,38.0,30.27,NW,304,2.0,3.0,100,0.00,,,-99.99,,2013-02-03 00:11:00,
2013-02-02 16:21:00,38.0,38.0,30.27,WNW,303,2.0,3.0,100,0.00,,,-99.99,,2013-02-03 00:21:00,
2013-02-02 16:31:00,38.0,38.0,30.27,WNW,303,2.0,2.0,100,0.00,,,-99.99,,2013-02-03 00:31:00,
2013-02-02 16:41:00,38.0,38.0,30.27,WNW,303,2.0,2.0,100,0.00,,,-99.99,,2013-02-03 00:41:00,
2013-02-02 16:52:00,38.0,38.0,30.26,WNW,303,1.0,2.0,100,0.00,,,-99.99,,2013-02-03 00:52:00,
2013-02-02 17:01:00,37.0,37.0,30.26,WNW,303,1.0,2.0,100,0.00,,,-99.99,,2013-02-03 01:01:00,
2013-02-02 17:11:00,38.0,38.0,30.26,NW,304,1.0,2.0,100,0.00,,,-99.99,,2013-02-03 01:11:00,
2013-02-02 17:21:00,38.0,38.0,30.26,NW,304,1.0,2.0,100,0.00,,,-99.99,,2013-02-03 01:21:00,
2013-02-02 17:32:00,37.0,37.0,30.26,WNW,303,1.0,1.0,100,0.00,,,-99.99,,2013-02-03 01:32:00,
2013-02-02 17:41:00,37.0,37.0,30.26,WNW,303,1.0,1.0,100,0.00,,,-99.99,,2013-02-03 01:41:00,
2013-02-02 17:52:00,42.0,42.0,30.26,WNW,302,1.0,1.0,100,0.00,,,-99.99,,2013-02-03 01:52:00,
2013-02-02 18:01:00,44.0,44.0,30.26,WNW,302,0.0,1.0,100,0.00,,,-99.99,,2013-02-03 02:01:00,
2013-02-02 18:11:00,44.0,44.0,30.26,WNW,302,0.0,1.0,100,0.00,,,-99.99,,2013-02-03 02:11:00,
2013-02-02 18:21:00,45.0,45.0,30.26,NW,305,1.0,2.0,100,0.00,,,-99.99,,2013-02-03 02:21:00,
2013-02-02 18:31:00,46.0,43.0,30.25,WNW,302,1.0,2.0,88,0.00,,,-99.99,,2013-02-03 02:31:00,
2013-02-02 18:41:00,46.0,43.0,30.25,WNW,302,1.0,2.0,88,0.00,,,-99.99,,2013-02-03 02:41:00,
2013-02-02 18:52:00,46.0,40.0,30.26,NW,304,1.0,2.0,79,0.00,,,-99.99,,2013-02-03 02:52:00,
2013-02-02 19:01:00,46.0,37.0,30.26,WNW,303,1.0,2.0,72,0.00,,,-99.99,,2013-02-03 03:01:00,
2013-02-02 19:11:00,46.0,36.0,30.25,WNW,303,1.0,2.0,68,0.00,,,-99.99,,2013-02-03 03:11:00,
2013-02-02 19:21:00,46.0,36.0,30.25,WNW,303,1.0,2.0,68,0.00,,,-99.99,,2013-02-03 03:21:00,
2013-02-02 19:31:00,46.0,36.0,30.26,WNW,303,1.0,2.0,67,0.00,,,-99.99,,2013-02-03 03:31:00,
2013-02-02 19:41:00,46.0,36.0,30.26,WNW,303,1.0,2.0,67,0.00,,,-99.99,,2013-02-03 03:41:00,
2013-02-02 19:51:00,47.0,35.0,30.26,WNW,303,1.0,2.0,63,0.00,,,-99.99,,2013-02-03 03:51:00,
2013-02-02 20:01:00,47.0,34.0,30.26,WNW,303,2.0,2.0,61,0.00,,,-99.99,,2013-02-03 04:01:00,
2013-02-02 20:21:00,47.0,35.0,30.26,NW,304,1.0,2.0,62,0.00,,,-99.99,,2013-02-03 04:21:00,
2013-02-02 20:31:00,47.0,35.0,30.27,NW,304,1.0,2.0,63,0.00,,,-99.99,,2013-02-03 04:31:00,
2013-02-02 20:42:00,47.0,35.0,30.27,NW,304,1.0,2.0,63,0.00,,,-99.99,,2013-02-03 04:42:00,
2013-02-02 20:51:00,46.0,35.0,30.27,WNW,303,0.0,0.0,66,0.00,,,-99.99,,2013-02-03 04:51:00,
2013-02-02 21:03:00,46.0,36.0,30.27,WNW,302,0.0,0.0,67,0.00,,,-99.99,,2013-02-03 05:03:00,
2013-02-02 21:11:00,46.0,36.0,30.27,WNW,302,0.0,0.0,67,0.00,,,-99.99,,2013-02-03 05:11:00,
2013-02-02 21:22:00,46.0,36.0,30.27,WNW,302,0.0,0.0,68,0.00,,,0.15,,2013-02-03 05:22:00,
2013-02-02 21:31:00,46.0,37.0,30.27,WNW,302,0.0,0.0,72,0.00,,,0.15,,2013-02-03 05:31:00,
2013-02-02 21:41:00,46.0,37.0,30.27,WNW,302,0.0,0.0,72,0.00,,,0.15,,2013-02-03 05:41:00,
2013-02-02 21:52:00,46.0,38.0,30.27,WNW,302,0.0,0.0,73,0.00,,,0.15,,2013-02-03 05:52:00,
2013-02-02 22:02:00,45.0,38.0,30.26,WNW,303,1.0,2.0,75,0.00,,,0.15,,2013-02-03 06:02:00,
2013-02-02 22:11:00,45.0,38.0,30.26,WNW,303,1.0,2.0,75,0.00,,,0.15,,2013-02-03 06:11:00,
2013-02-02 22:21:00,44.0,37.0,30.26,WNW,303,1.0,2.0,77,0.00,,,0.15,,2013-02-03 06:21:00,
2013-02-02 22:31:00,44.0,38.0,30.26,WNW,303,1.0,2.0,78,0.00,,,0.15,,2013-02-03 06:31:00,
2013-02-02 22:41:00,44.0,38.0,30.26,WNW,303,1.0,2.0,78,0.00,,,0.15,,2013-02-03 06:41:00,
2013-02-02 22:52:00,42.0,37.0,30.27,NW,304,2.0,3.0,82,0.00,,,0.15,,2013-02-03 06:52:00,
2013-02-02 23:01:00,42.0,37.0,30.27,WNW,303,3.0,4.0,82,0.00,,,0.15,,2013-02-03 07:01:00,
2013-02-02 23:11:00,42.0,37.0,30.27,WNW,303,3.0,4.0,82,0.00,,,0.15,,2013-02-03 07:11:00,
2013-02-02 23:21:00,41.0,37.0,30.27,WNW,303,3.0,4.0,84,0.00,,,0.15,,2013-02-03 07:21:00,
2013-02-02 23:31:00,40.0,36.0,30.28,WNW,303,2.0,3.0,87,0.00,,,0.15,,2013-02-03 07:31:00,
2013-02-02 23:41:00,40.0,36.0,30.28,WNW,303,2.0,3.0,87,0.00,,,0.15,,2013-02-03 07:41:00,
2013-02-02 23:52:00,39.0,37.0,30.27,WNW,303,2.0,3.0,91,0.00,,,0.15,,2013-02-03 07:52:00,